sensor_id;sensor_type;location;lat;lon;timestamp;temperature;humidity
5796;DHT22;2924;51.458;7.046;2022-12-11T00:02:19;-0.90;99.90
5796;DHT22;2924;51.458;7.046;2022-12-11T00:04:44;-0.90;99.90
5796;DHT22;2924;51.458;7.046;2022-12-11T00:07:10;-0.90;99.90
5796;DHT22;2924;51.458;7.046;2022-12-11T00:09:36;-0.90;99.90
5796;DHT22;2924;51.458;7.046;2022-12-11T00:12:01;-0.90;99.90
5796;DHT22;2924;51.458;7.046;2022-12-11T00:14:28;-0.90;99.90
5796;DHT22;2924;51.458;7.046;2022-12-11T00:16:54;-0.90;99.90
5796;DHT22;2924;51.458;7.046;2022-12-11T00:19:20;-0.90;99.90
5796;DHT22;2924;51.458;7.046;2022-12-11T00:21:45;-0.90;99.90
5796;DHT22;2924;51.458;7.046;2022-12-11T00:24:11;-0.90;99.90
5796;DHT22;2924;51.458;7.046;2022-12-11T00:26:38;-0.80;99.90
5796;DHT22;2924;51.458;7.046;2022-12-11T00:29:03;-0.80;99.90
5796;DHT22;2924;51.458;7.046;2022-12-11T00:31:29;-0.80;99.90
5796;DHT22;2924;51.458;7.046;2022-12-11T00:33:55;-0.80;99.90
5796;DHT22;2924;51.458;7.046;2022-12-11T00:36:23;-0.80;99.90
5796;DHT22;2924;51.458;7.046;2022-12-11T00:38:49;-0.80;99.90
5796;DHT22;2924;51.458;7.046;2022-12-11T00:41:16;-0.80;99.90
5796;DHT22;2924;51.458;7.046;2022-12-11T00:43:42;-0.70;99.90
5796;DHT22;2924;51.458;7.046;2022-12-11T00:46:09;-0.80;99.90
5796;DHT22;2924;51.458;7.046;2022-12-11T00:48:34;-0.80;99.90
5796;DHT22;2924;51.458;7.046;2022-12-11T00:51:00;-0.70;99.90
5796;DHT22;2924;51.458;7.046;2022-12-11T00:53:26;-0.70;99.90
5796;DHT22;2924;51.458;7.046;2022-12-11T00:55:52;-0.70;99.90
5796;DHT22;2924;51.458;7.046;2022-12-11T00:58:17;-0.70;99.90
5796;DHT22;2924;51.458;7.046;2022-12-11T01:00:43;-0.70;99.90
5796;DHT22;2924;51.458;7.046;2022-12-11T01:03:10;-0.70;99.90
5796;DHT22;2924;51.458;7.046;2022-12-11T01:05:37;-0.70;99.90
5796;DHT22;2924;51.458;7.046;2022-12-11T01:08:03;-0.60;99.90
5796;DHT22;2924;51.458;7.046;2022-12-11T01:10:29;-0.70;99.90
5796;DHT22;2924;51.458;7.046;2022-12-11T01:12:56;-0.60;99.90
5796;DHT22;2924;51.458;7.046;2022-12-11T01:15:24;-0.60;99.90
5796;DHT22;2924;51.458;7.046;2022-12-11T01:17:51;-0.60;99.90
5796;DHT22;2924;51.458;7.046;2022-12-11T01:20:18;-0.60;99.90
5796;DHT22;2924;51.458;7.046;2022-12-11T01:22:44;-0.60;99.90
5796;DHT22;2924;51.458;7.046;2022-12-11T01:25:10;-0.70;99.90
5796;DHT22;2924;51.458;7.046;2022-12-11T01:27:36;-0.60;99.90
5796;DHT22;2924;51.458;7.046;2022-12-11T01:30:04;-0.60;99.90
5796;DHT22;2924;51.458;7.046;2022-12-11T01:32:31;-0.60;99.90
5796;DHT22;2924;51.458;7.046;2022-12-11T01:34:57;-0.70;99.90
5796;DHT22;2924;51.458;7.046;2022-12-11T01:37:22;-0.70;99.90
5796;DHT22;2924;51.458;7.046;2022-12-11T01:39:48;-0.60;99.90
5796;DHT22;2924;51.458;7.046;2022-12-11T01:42:18;-0.70;99.90
5796;DHT22;2924;51.458;7.046;2022-12-11T01:47:10;-0.60;99.90
5796;DHT22;2924;51.458;7.046;2022-12-11T01:49:38;-0.60;99.90
5796;DHT22;2924;51.458;7.046;2022-12-11T01:52:15;-0.60;99.90
5796;DHT22;2924;51.458;7.046;2022-12-11T01:54:44;-0.60;99.90
5796;DHT22;2924;51.458;7.046;2022-12-11T01:57:11;-0.60;99.90
5796;DHT22;2924;51.458;7.046;2022-12-11T01:59:39;-0.60;99.90
5796;DHT22;2924;51.458;7.046;2022-12-11T02:02:21;-0.70;99.90
5796;DHT22;2924;51.458;7.046;2022-12-11T02:04:48;-0.60;99.90
5796;DHT22;2924;51.458;7.046;2022-12-11T02:07:14;-0.60;99.90
5796;DHT22;2924;51.458;7.046;2022-12-11T02:09:42;-0.60;99.90
5796;DHT22;2924;51.458;7.046;2022-12-11T02:17:51;-0.60;99.90
5796;DHT22;2924;51.458;7.046;2022-12-11T02:23:31;-0.70;99.90
5796;DHT22;2924;51.458;7.046;2022-12-11T02:28:49;-0.70;99.90
5796;DHT22;2924;51.458;7.046;2022-12-11T02:31:22;-0.70;99.90
5796;DHT22;2924;51.458;7.046;2022-12-11T02:36:44;-0.60;99.90
5796;DHT22;2924;51.458;7.046;2022-12-11T02:39:14;-0.70;99.90
5796;DHT22;2924;51.458;7.046;2022-12-11T02:41:44;-0.70;99.90
5796;DHT22;2924;51.458;7.046;2022-12-11T02:44:13;-0.70;99.90
5796;DHT22;2924;51.458;7.046;2022-12-11T02:46:41;-0.70;99.90
5796;DHT22;2924;51.458;7.046;2022-12-11T02:49:08;-0.70;99.90
5796;DHT22;2924;51.458;7.046;2022-12-11T02:51:38;-0.70;99.90
5796;DHT22;2924;51.458;7.046;2022-12-11T02:54:06;-0.70;99.90
5796;DHT22;2924;51.458;7.046;2022-12-11T02:56:42;-0.80;99.90
5796;DHT22;2924;51.458;7.046;2022-12-11T02:59:14;-0.80;99.90
5796;DHT22;2924;51.458;7.046;2022-12-11T03:01:41;-0.80;99.90
5796;DHT22;2924;51.458;7.046;2022-12-11T03:04:07;-0.70;99.90
5796;DHT22;2924;51.458;7.046;2022-12-11T03:06:42;-0.70;99.90
5796;DHT22;2924;51.458;7.046;2022-12-11T03:09:11;-0.70;99.90
5796;DHT22;2924;51.458;7.046;2022-12-11T03:11:37;-0.70;99.90
5796;DHT22;2924;51.458;7.046;2022-12-11T03:14:03;-0.70;99.90
5796;DHT22;2924;51.458;7.046;2022-12-11T03:24:18;-0.70;99.90
5796;DHT22;2924;51.458;7.046;2022-12-11T03:26:55;-0.70;99.90
5796;DHT22;2924;51.458;7.046;2022-12-11T03:29:26;-0.70;99.90
5796;DHT22;2924;51.458;7.046;2022-12-11T03:32:13;-0.70;99.90
5796;DHT22;2924;51.458;7.046;2022-12-11T03:34:43;-0.70;99.90
5796;DHT22;2924;51.458;7.046;2022-12-11T03:37:12;-0.70;99.90
5796;DHT22;2924;51.458;7.046;2022-12-11T03:39:42;-0.60;99.90
5796;DHT22;2924;51.458;7.046;2022-12-11T03:42:12;-0.60;99.90
5796;DHT22;2924;51.458;7.046;2022-12-11T03:44:39;-0.60;99.90
5796;DHT22;2924;51.458;7.046;2022-12-11T03:47:07;-0.50;99.90
5796;DHT22;2924;51.458;7.046;2022-12-11T03:49:38;-0.60;99.90
5796;DHT22;2924;51.458;7.046;2022-12-11T03:52:05;-0.60;99.90
5796;DHT22;2924;51.458;7.046;2022-12-11T03:54:32;-0.60;99.90
5796;DHT22;2924;51.458;7.046;2022-12-11T03:57:00;-0.60;99.90
5796;DHT22;2924;51.458;7.046;2022-12-11T03:59:26;-0.60;99.90
5796;DHT22;2924;51.458;7.046;2022-12-11T04:01:52;-0.60;99.90
5796;DHT22;2924;51.458;7.046;2022-12-11T04:04:18;-0.60;99.90
5796;DHT22;2924;51.458;7.046;2022-12-11T04:06:43;-0.60;99.90
5796;DHT22;2924;51.458;7.046;2022-12-11T04:09:09;-0.60;99.90
5796;DHT22;2924;51.458;7.046;2022-12-11T04:11:34;-0.60;99.90
5796;DHT22;2924;51.458;7.046;2022-12-11T04:14:08;-0.50;99.90
5796;DHT22;2924;51.458;7.046;2022-12-11T04:16:53;-0.50;99.90
5796;DHT22;2924;51.458;7.046;2022-12-11T04:19:19;-0.60;99.90
5796;DHT22;2924;51.458;7.046;2022-12-11T04:22:03;-0.50;99.90
5796;DHT22;2924;51.458;7.046;2022-12-11T04:24:48;-0.50;99.90
5796;DHT22;2924;51.458;7.046;2022-12-11T04:27:15;-0.50;99.90
5796;DHT22;2924;51.458;7.046;2022-12-11T04:30:01;-0.60;99.90
5796;DHT22;2924;51.458;7.046;2022-12-11T04:32:27;-0.50;99.90
5796;DHT22;2924;51.458;7.046;2022-12-11T04:34:52;-0.50;99.90
5796;DHT22;2924;51.458;7.046;2022-12-11T04:37:18;-0.50;99.90
5796;DHT22;2924;51.458;7.046;2022-12-11T04:39:43;-0.50;99.90
5796;DHT22;2924;51.458;7.046;2022-12-11T04:42:09;-0.50;99.90
5796;DHT22;2924;51.458;7.046;2022-12-11T04:44:35;-0.40;99.90
5796;DHT22;2924;51.458;7.046;2022-12-11T04:47:00;-0.40;99.90
5796;DHT22;2924;51.458;7.046;2022-12-11T04:49:26;-0.40;99.90
5796;DHT22;2924;51.458;7.046;2022-12-11T04:51:51;-0.30;99.90
5796;DHT22;2924;51.458;7.046;2022-12-11T04:54:17;-0.40;99.90
5796;DHT22;2924;51.458;7.046;2022-12-11T04:56:43;-0.40;99.90
5796;DHT22;2924;51.458;7.046;2022-12-11T04:59:08;-0.30;99.90
5796;DHT22;2924;51.458;7.046;2022-12-11T05:01:34;-0.40;99.90
5796;DHT22;2924;51.458;7.046;2022-12-11T05:04:00;-0.40;99.90
5796;DHT22;2924;51.458;7.046;2022-12-11T05:06:25;-0.40;99.90
5796;DHT22;2924;51.458;7.046;2022-12-11T05:08:51;-0.40;99.90
5796;DHT22;2924;51.458;7.046;2022-12-11T05:11:17;-0.40;99.90
5796;DHT22;2924;51.458;7.046;2022-12-11T05:13:44;-0.40;99.90
5796;DHT22;2924;51.458;7.046;2022-12-11T05:16:12;-0.30;99.90
5796;DHT22;2924;51.458;7.046;2022-12-11T05:18:38;-0.30;99.90
5796;DHT22;2924;51.458;7.046;2022-12-11T05:21:07;-0.30;99.90
5796;DHT22;2924;51.458;7.046;2022-12-11T05:23:33;-0.20;99.90
5796;DHT22;2924;51.458;7.046;2022-12-11T05:26:01;-0.10;99.90
5796;DHT22;2924;51.458;7.046;2022-12-11T05:28:29;-0.20;99.90
5796;DHT22;2924;51.458;7.046;2022-12-11T05:31:01;-0.30;99.90
5796;DHT22;2924;51.458;7.046;2022-12-11T05:33:28;-0.30;99.90
5796;DHT22;2924;51.458;7.046;2022-12-11T05:35:54;-0.30;99.90
5796;DHT22;2924;51.458;7.046;2022-12-11T05:38:20;-0.30;99.90
5796;DHT22;2924;51.458;7.046;2022-12-11T05:40:58;-0.30;99.90
5796;DHT22;2924;51.458;7.046;2022-12-11T05:43:24;-0.30;99.90
5796;DHT22;2924;51.458;7.046;2022-12-11T05:45:50;-0.30;99.90
5796;DHT22;2924;51.458;7.046;2022-12-11T05:48:16;-0.30;99.90
5796;DHT22;2924;51.458;7.046;2022-12-11T05:50:42;-0.30;99.90
5796;DHT22;2924;51.458;7.046;2022-12-11T05:53:07;-0.30;99.90
5796;DHT22;2924;51.458;7.046;2022-12-11T05:55:33;-0.30;99.90
5796;DHT22;2924;51.458;7.046;2022-12-11T05:57:59;-0.30;99.90
5796;DHT22;2924;51.458;7.046;2022-12-11T06:00:25;-0.30;99.90
5796;DHT22;2924;51.458;7.046;2022-12-11T06:02:50;-0.30;99.90
5796;DHT22;2924;51.458;7.046;2022-12-11T06:05:16;-0.30;99.90
5796;DHT22;2924;51.458;7.046;2022-12-11T06:07:42;-0.30;99.90
5796;DHT22;2924;51.458;7.046;2022-12-11T06:10:07;-0.20;99.90
5796;DHT22;2924;51.458;7.046;2022-12-11T06:12:33;-0.20;99.90
5796;DHT22;2924;51.458;7.046;2022-12-11T06:14:59;-0.20;99.90
5796;DHT22;2924;51.458;7.046;2022-12-11T06:17:25;-0.20;99.90
5796;DHT22;2924;51.458;7.046;2022-12-11T06:19:50;-0.20;99.90
5796;DHT22;2924;51.458;7.046;2022-12-11T06:22:16;-0.20;99.90
5796;DHT22;2924;51.458;7.046;2022-12-11T06:24:41;-0.20;99.90
5796;DHT22;2924;51.458;7.046;2022-12-11T06:27:07;-0.20;99.90
5796;DHT22;2924;51.458;7.046;2022-12-11T06:29:33;-0.10;99.90
5796;DHT22;2924;51.458;7.046;2022-12-11T06:31:59;-0.10;99.90
5796;DHT22;2924;51.458;7.046;2022-12-11T06:34:24;-0.10;99.90
5796;DHT22;2924;51.458;7.046;2022-12-11T06:36:50;-0.20;99.90
5796;DHT22;2924;51.458;7.046;2022-12-11T06:39:15;-0.20;99.90
5796;DHT22;2924;51.458;7.046;2022-12-11T06:41:41;-0.30;99.90
5796;DHT22;2924;51.458;7.046;2022-12-11T06:44:07;-0.40;99.90
5796;DHT22;2924;51.458;7.046;2022-12-11T06:46:33;-0.40;99.90
5796;DHT22;2924;51.458;7.046;2022-12-11T06:48:58;-0.40;99.90
5796;DHT22;2924;51.458;7.046;2022-12-11T06:51:24;-0.40;99.90
5796;DHT22;2924;51.458;7.046;2022-12-11T06:53:51;-0.30;99.90
5796;DHT22;2924;51.458;7.046;2022-12-11T06:56:17;-0.30;99.90
5796;DHT22;2924;51.458;7.046;2022-12-11T06:58:43;-0.30;99.90
5796;DHT22;2924;51.458;7.046;2022-12-11T07:03:42;-0.20;99.90
5796;DHT22;2924;51.458;7.046;2022-12-11T07:06:08;-0.20;99.90
5796;DHT22;2924;51.458;7.046;2022-12-11T07:08:34;-0.20;99.90
5796;DHT22;2924;51.458;7.046;2022-12-11T07:11:09;-0.30;99.90
5796;DHT22;2924;51.458;7.046;2022-12-11T07:13:35;-0.30;99.90
5796;DHT22;2924;51.458;7.046;2022-12-11T07:16:01;-0.20;99.90
5796;DHT22;2924;51.458;7.046;2022-12-11T07:18:29;-0.20;99.90
5796;DHT22;2924;51.458;7.046;2022-12-11T07:20:57;-0.20;99.90
5796;DHT22;2924;51.458;7.046;2022-12-11T07:23:23;-0.20;99.90
5796;DHT22;2924;51.458;7.046;2022-12-11T07:25:49;-0.20;99.90
5796;DHT22;2924;51.458;7.046;2022-12-11T07:28:15;-0.20;99.90
5796;DHT22;2924;51.458;7.046;2022-12-11T07:30:40;-0.20;99.90
5796;DHT22;2924;51.458;7.046;2022-12-11T07:33:06;-0.20;99.90
5796;DHT22;2924;51.458;7.046;2022-12-11T07:35:34;-0.20;99.90
5796;DHT22;2924;51.458;7.046;2022-12-11T07:37:59;-0.20;99.90
5796;DHT22;2924;51.458;7.046;2022-12-11T07:40:25;-0.30;99.90
5796;DHT22;2924;51.458;7.046;2022-12-11T07:42:50;-0.30;99.90
5796;DHT22;2924;51.458;7.046;2022-12-11T07:45:16;-0.30;99.90
5796;DHT22;2924;51.458;7.046;2022-12-11T07:47:42;-0.40;99.90
5796;DHT22;2924;51.458;7.046;2022-12-11T07:50:07;-0.30;99.90
5796;DHT22;2924;51.458;7.046;2022-12-11T07:52:33;-0.30;99.90
5796;DHT22;2924;51.458;7.046;2022-12-11T07:54:59;-0.30;99.90
5796;DHT22;2924;51.458;7.046;2022-12-11T07:57:25;-0.30;99.90
5796;DHT22;2924;51.458;7.046;2022-12-11T07:59:50;-0.30;99.90
5796;DHT22;2924;51.458;7.046;2022-12-11T08:02:16;-0.30;99.90
5796;DHT22;2924;51.458;7.046;2022-12-11T08:04:41;-0.40;99.90
5796;DHT22;2924;51.458;7.046;2022-12-11T08:07:07;-0.30;99.90
5796;DHT22;2924;51.458;7.046;2022-12-11T08:09:33;-0.30;99.90
5796;DHT22;2924;51.458;7.046;2022-12-11T08:11:59;-0.20;99.90
5796;DHT22;2924;51.458;7.046;2022-12-11T08:14:24;-0.20;99.90
5796;DHT22;2924;51.458;7.046;2022-12-11T08:16:50;-0.30;99.90
5796;DHT22;2924;51.458;7.046;2022-12-11T08:19:16;-0.30;99.90
5796;DHT22;2924;51.458;7.046;2022-12-11T08:21:43;-0.30;99.90
5796;DHT22;2924;51.458;7.046;2022-12-11T08:24:09;-0.30;99.90
5796;DHT22;2924;51.458;7.046;2022-12-11T08:26:35;-0.30;99.90
5796;DHT22;2924;51.458;7.046;2022-12-11T08:29:01;-0.30;99.90
5796;DHT22;2924;51.458;7.046;2022-12-11T08:31:28;-0.30;99.90
5796;DHT22;2924;51.458;7.046;2022-12-11T08:33:54;-0.30;99.90
5796;DHT22;2924;51.458;7.046;2022-12-11T08:36:22;-0.30;99.90
5796;DHT22;2924;51.458;7.046;2022-12-11T08:38:48;-0.20;99.90
5796;DHT22;2924;51.458;7.046;2022-12-11T08:41:16;-0.20;99.90
5796;DHT22;2924;51.458;7.046;2022-12-11T08:43:43;-0.20;99.90
5796;DHT22;2924;51.458;7.046;2022-12-11T08:46:09;-0.20;99.90
5796;DHT22;2924;51.458;7.046;2022-12-11T08:48:36;-0.30;99.90
5796;DHT22;2924;51.458;7.046;2022-12-11T08:51:04;-0.30;99.90
5796;DHT22;2924;51.458;7.046;2022-12-11T08:53:31;-0.30;99.90
5796;DHT22;2924;51.458;7.046;2022-12-11T08:56:05;-0.30;99.90
5796;DHT22;2924;51.458;7.046;2022-12-11T08:58:31;-0.30;99.90
5796;DHT22;2924;51.458;7.046;2022-12-11T09:00:57;-0.30;99.90
5796;DHT22;2924;51.458;7.046;2022-12-11T09:03:23;-0.30;99.90
5796;DHT22;2924;51.458;7.046;2022-12-11T09:05:49;-0.30;99.90
5796;DHT22;2924;51.458;7.046;2022-12-11T09:08:14;-0.30;99.90
5796;DHT22;2924;51.458;7.046;2022-12-11T09:10:40;-0.30;99.90
5796;DHT22;2924;51.458;7.046;2022-12-11T09:13:06;-0.30;99.90
5796;DHT22;2924;51.458;7.046;2022-12-11T09:15:32;-0.20;99.90
5796;DHT22;2924;51.458;7.046;2022-12-11T09:17:57;-0.20;99.90
5796;DHT22;2924;51.458;7.046;2022-12-11T09:20:23;-0.10;99.90
5796;DHT22;2924;51.458;7.046;2022-12-11T09:22:49;-0.10;99.90
5796;DHT22;2924;51.458;7.046;2022-12-11T09:25:14;-0.20;99.90
5796;DHT22;2924;51.458;7.046;2022-12-11T09:27:40;-0.10;99.90
5796;DHT22;2924;51.458;7.046;2022-12-11T09:30:06;-0.10;99.90
5796;DHT22;2924;51.458;7.046;2022-12-11T09:32:32;-0.10;99.90
5796;DHT22;2924;51.458;7.046;2022-12-11T09:34:58;-0.10;99.90
5796;DHT22;2924;51.458;7.046;2022-12-11T09:37:24;-0.10;99.90
5796;DHT22;2924;51.458;7.046;2022-12-11T09:39:49;-0.10;99.90
5796;DHT22;2924;51.458;7.046;2022-12-11T09:42:20;-0.10;99.90
5796;DHT22;2924;51.458;7.046;2022-12-11T09:44:59;-0.10;99.90
5796;DHT22;2924;51.458;7.046;2022-12-11T09:47:37;-0.10;99.90
5796;DHT22;2924;51.458;7.046;2022-12-11T09:55:23;0.00;99.90
5796;DHT22;2924;51.458;7.046;2022-12-11T10:00:38;0.00;99.90
5796;DHT22;2924;51.458;7.046;2022-12-11T10:03:35;0.00;99.90
5796;DHT22;2924;51.458;7.046;2022-12-11T10:09:33;-0.10;99.90
5796;DHT22;2924;51.458;7.046;2022-12-11T10:17:20;0.00;99.90
5796;DHT22;2924;51.458;7.046;2022-12-11T10:19:48;0.00;99.90
5796;DHT22;2924;51.458;7.046;2022-12-11T10:22:26;0.00;99.90
5796;DHT22;2924;51.458;7.046;2022-12-11T10:24:59;0.00;99.90
5796;DHT22;2924;51.458;7.046;2022-12-11T10:27:32;0.00;99.90
5796;DHT22;2924;51.458;7.046;2022-12-11T10:30:17;0.00;99.90
5796;DHT22;2924;51.458;7.046;2022-12-11T10:35:19;0.00;99.90
5796;DHT22;2924;51.458;7.046;2022-12-11T10:37:50;0.00;99.90
5796;DHT22;2924;51.458;7.046;2022-12-11T10:40:17;0.00;99.90
5796;DHT22;2924;51.458;7.046;2022-12-11T10:42:52;0.00;99.90
5796;DHT22;2924;51.458;7.046;2022-12-11T10:45:18;0.00;99.90
5796;DHT22;2924;51.458;7.046;2022-12-11T10:47:43;0.00;99.90
5796;DHT22;2924;51.458;7.046;2022-12-11T10:50:22;0.00;99.90
5796;DHT22;2924;51.458;7.046;2022-12-11T10:52:48;0.10;99.90
5796;DHT22;2924;51.458;7.046;2022-12-11T10:55:21;0.10;99.90
5796;DHT22;2924;51.458;7.046;2022-12-11T10:58:03;0.20;99.90
5796;DHT22;2924;51.458;7.046;2022-12-11T11:00:38;0.20;99.90
5796;DHT22;2924;51.458;7.046;2022-12-11T11:03:19;0.20;99.90
5796;DHT22;2924;51.458;7.046;2022-12-11T11:05:45;0.30;99.90
5796;DHT22;2924;51.458;7.046;2022-12-11T11:08:19;0.20;99.90
5796;DHT22;2924;51.458;7.046;2022-12-11T11:10:59;0.10;99.90
5796;DHT22;2924;51.458;7.046;2022-12-11T11:13:28;0.20;99.90
5796;DHT22;2924;51.458;7.046;2022-12-11T11:16:01;0.40;99.90
5796;DHT22;2924;51.458;7.046;2022-12-11T11:18:29;0.40;99.90
5796;DHT22;2924;51.458;7.046;2022-12-11T11:20:56;0.30;99.90
5796;DHT22;2924;51.458;7.046;2022-12-11T11:23:23;0.30;99.90
5796;DHT22;2924;51.458;7.046;2022-12-11T11:25:54;0.30;99.90
5796;DHT22;2924;51.458;7.046;2022-12-11T11:28:33;0.30;99.90
5796;DHT22;2924;51.458;7.046;2022-12-11T11:33:34;0.40;99.90
5796;DHT22;2924;51.458;7.046;2022-12-11T11:36:06;0.40;99.90
5796;DHT22;2924;51.458;7.046;2022-12-11T11:38:41;0.40;99.90
5796;DHT22;2924;51.458;7.046;2022-12-11T11:41:22;0.40;99.90
5796;DHT22;2924;51.458;7.046;2022-12-11T11:43:55;0.40;99.90
5796;DHT22;2924;51.458;7.046;2022-12-11T11:46:36;0.40;99.90
5796;DHT22;2924;51.458;7.046;2022-12-11T11:49:17;0.40;99.90
5796;DHT22;2924;51.458;7.046;2022-12-11T11:54:46;0.50;99.90
5796;DHT22;2924;51.458;7.046;2022-12-11T11:57:19;0.50;99.90
5796;DHT22;2924;51.458;7.046;2022-12-11T11:59:53;0.60;99.90
5796;DHT22;2924;51.458;7.046;2022-12-11T12:02:20;0.70;99.90
5796;DHT22;2924;51.458;7.046;2022-12-11T12:04:46;0.70;99.90
5796;DHT22;2924;51.458;7.046;2022-12-11T12:10:02;0.80;99.90
5796;DHT22;2924;51.458;7.046;2022-12-11T12:15:37;0.80;99.90
5796;DHT22;2924;51.458;7.046;2022-12-11T12:18:08;0.90;99.90
5796;DHT22;2924;51.458;7.046;2022-12-11T12:21:18;1.00;99.90
5796;DHT22;2924;51.458;7.046;2022-12-11T12:27:01;1.40;99.90
5796;DHT22;2924;51.458;7.046;2022-12-11T12:29:59;1.50;99.90
5796;DHT22;2924;51.458;7.046;2022-12-11T12:33:04;1.50;99.90
5796;DHT22;2924;51.458;7.046;2022-12-11T12:35:41;1.40;99.90
5796;DHT22;2924;51.458;7.046;2022-12-11T12:41:35;1.40;99.90
5796;DHT22;2924;51.458;7.046;2022-12-11T12:44:15;1.30;99.90
5796;DHT22;2924;51.458;7.046;2022-12-11T12:46:58;1.20;99.90
5796;DHT22;2924;51.458;7.046;2022-12-11T12:49:35;1.10;99.90
5796;DHT22;2924;51.458;7.046;2022-12-11T12:52:02;1.20;99.90
5796;DHT22;2924;51.458;7.046;2022-12-11T12:54:31;1.10;99.90
5796;DHT22;2924;51.458;7.046;2022-12-11T12:56:57;1.10;99.90
5796;DHT22;2924;51.458;7.046;2022-12-11T12:59:26;1.10;99.90
5796;DHT22;2924;51.458;7.046;2022-12-11T13:02:00;1.00;99.90
5796;DHT22;2924;51.458;7.046;2022-12-11T13:04:40;1.00;99.90
5796;DHT22;2924;51.458;7.046;2022-12-11T13:07:15;0.90;99.90
5796;DHT22;2924;51.458;7.046;2022-12-11T13:09:42;0.90;99.90
5796;DHT22;2924;51.458;7.046;2022-12-11T13:12:13;0.90;99.90
5796;DHT22;2924;51.458;7.046;2022-12-11T13:14:39;0.90;99.90
5796;DHT22;2924;51.458;7.046;2022-12-11T13:19:48;0.90;99.90
5796;DHT22;2924;51.458;7.046;2022-12-11T13:24:58;0.90;99.90
5796;DHT22;2924;51.458;7.046;2022-12-11T13:27:36;0.90;99.90
5796;DHT22;2924;51.458;7.046;2022-12-11T13:30:05;0.90;99.90
5796;DHT22;2924;51.458;7.046;2022-12-11T13:32:32;0.90;99.90
5796;DHT22;2924;51.458;7.046;2022-12-11T13:35:03;0.90;99.90
5796;DHT22;2924;51.458;7.046;2022-12-11T13:37:38;1.00;99.90
5796;DHT22;2924;51.458;7.046;2022-12-11T13:40:13;1.10;99.90
5796;DHT22;2924;51.458;7.046;2022-12-11T13:42:50;1.00;99.90
5796;DHT22;2924;51.458;7.046;2022-12-11T13:45:46;1.00;99.90
5796;DHT22;2924;51.458;7.046;2022-12-11T13:48:28;0.90;99.90
5796;DHT22;2924;51.458;7.046;2022-12-11T13:50:55;0.90;99.90
5796;DHT22;2924;51.458;7.046;2022-12-11T13:53:22;0.80;99.90
5796;DHT22;2924;51.458;7.046;2022-12-11T13:56:01;0.90;99.90
5796;DHT22;2924;51.458;7.046;2022-12-11T13:58:28;0.90;99.90
5796;DHT22;2924;51.458;7.046;2022-12-11T14:01:06;0.90;99.90
5796;DHT22;2924;51.458;7.046;2022-12-11T14:03:33;1.00;99.90
5796;DHT22;2924;51.458;7.046;2022-12-11T14:06:00;1.00;99.90
5796;DHT22;2924;51.458;7.046;2022-12-11T14:08:32;0.90;99.90
5796;DHT22;2924;51.458;7.046;2022-12-11T14:10:58;1.00;99.90
5796;DHT22;2924;51.458;7.046;2022-12-11T14:13:35;1.00;99.90
5796;DHT22;2924;51.458;7.046;2022-12-11T14:16:02;0.90;99.90
5796;DHT22;2924;51.458;7.046;2022-12-11T14:18:30;0.80;99.90
5796;DHT22;2924;51.458;7.046;2022-12-11T14:21:06;0.80;99.90
5796;DHT22;2924;51.458;7.046;2022-12-11T14:23:34;0.90;99.90
5796;DHT22;2924;51.458;7.046;2022-12-11T14:26:02;0.90;99.90
5796;DHT22;2924;51.458;7.046;2022-12-11T14:28:36;0.80;99.90
5796;DHT22;2924;51.458;7.046;2022-12-11T14:31:02;0.80;99.90
5796;DHT22;2924;51.458;7.046;2022-12-11T14:33:32;0.80;99.90
5796;DHT22;2924;51.458;7.046;2022-12-11T14:35:59;0.80;99.90
5796;DHT22;2924;51.458;7.046;2022-12-11T14:38:26;0.70;99.90
5796;DHT22;2924;51.458;7.046;2022-12-11T14:41:00;0.70;99.90
5796;DHT22;2924;51.458;7.046;2022-12-11T14:43:32;0.70;99.90
5796;DHT22;2924;51.458;7.046;2022-12-11T14:46:06;0.70;99.90
5796;DHT22;2924;51.458;7.046;2022-12-11T14:48:43;0.80;99.90
5796;DHT22;2924;51.458;7.046;2022-12-11T14:51:14;0.70;99.90
5796;DHT22;2924;51.458;7.046;2022-12-11T14:53:43;0.60;99.90
5796;DHT22;2924;51.458;7.046;2022-12-11T14:56:20;0.70;99.90
5796;DHT22;2924;51.458;7.046;2022-12-11T14:58:58;0.60;99.90
5796;DHT22;2924;51.458;7.046;2022-12-11T15:08:55;0.60;99.90
5796;DHT22;2924;51.458;7.046;2022-12-11T15:11:22;0.60;99.90
5796;DHT22;2924;51.458;7.046;2022-12-11T15:13:53;0.50;99.90
5796;DHT22;2924;51.458;7.046;2022-12-11T15:16:21;0.50;99.90
5796;DHT22;2924;51.458;7.046;2022-12-11T15:18:49;0.40;99.90
5796;DHT22;2924;51.458;7.046;2022-12-11T15:21:16;0.50;99.90
5796;DHT22;2924;51.458;7.046;2022-12-11T15:23:53;0.40;99.90
5796;DHT22;2924;51.458;7.046;2022-12-11T15:26:30;0.40;99.90
5796;DHT22;2924;51.458;7.046;2022-12-11T15:29:00;0.50;99.90
5796;DHT22;2924;51.458;7.046;2022-12-11T15:31:32;0.50;99.90
5796;DHT22;2924;51.458;7.046;2022-12-11T15:33:59;0.40;99.90
5796;DHT22;2924;51.458;7.046;2022-12-11T15:36:31;0.50;99.90
5796;DHT22;2924;51.458;7.046;2022-12-11T15:38:57;0.40;99.90
5796;DHT22;2924;51.458;7.046;2022-12-11T15:41:23;0.50;99.90
5796;DHT22;2924;51.458;7.046;2022-12-11T15:43:51;0.40;99.90
5796;DHT22;2924;51.458;7.046;2022-12-11T15:46:17;0.50;99.90
5796;DHT22;2924;51.458;7.046;2022-12-11T15:48:43;0.40;99.90
5796;DHT22;2924;51.458;7.046;2022-12-11T15:51:09;0.40;99.90
5796;DHT22;2924;51.458;7.046;2022-12-11T15:53:35;0.40;99.90
5796;DHT22;2924;51.458;7.046;2022-12-11T15:56:01;0.40;99.90
5796;DHT22;2924;51.458;7.046;2022-12-11T15:58:27;0.30;99.90
5796;DHT22;2924;51.458;7.046;2022-12-11T16:00:53;0.30;99.90
5796;DHT22;2924;51.458;7.046;2022-12-11T16:03:21;0.30;99.90
5796;DHT22;2924;51.458;7.046;2022-12-11T16:05:49;0.30;99.90
5796;DHT22;2924;51.458;7.046;2022-12-11T16:08:18;0.30;99.90
5796;DHT22;2924;51.458;7.046;2022-12-11T16:10:45;0.40;99.90
5796;DHT22;2924;51.458;7.046;2022-12-11T16:13:12;0.40;99.90
5796;DHT22;2924;51.458;7.046;2022-12-11T16:15:42;0.30;99.90
5796;DHT22;2924;51.458;7.046;2022-12-11T16:18:11;0.30;99.90
5796;DHT22;2924;51.458;7.046;2022-12-11T16:20:39;0.30;99.90
5796;DHT22;2924;51.458;7.046;2022-12-11T16:23:05;0.30;99.90
5796;DHT22;2924;51.458;7.046;2022-12-11T16:25:31;0.40;99.90
5796;DHT22;2924;51.458;7.046;2022-12-11T16:27:59;0.40;99.90
5796;DHT22;2924;51.458;7.046;2022-12-11T16:30:26;0.40;99.90
5796;DHT22;2924;51.458;7.046;2022-12-11T16:32:52;0.40;99.90
5796;DHT22;2924;51.458;7.046;2022-12-11T16:35:19;0.40;99.90
5796;DHT22;2924;51.458;7.046;2022-12-11T16:37:48;0.40;99.90
5796;DHT22;2924;51.458;7.046;2022-12-11T16:40:14;0.40;99.90
5796;DHT22;2924;51.458;7.046;2022-12-11T16:42:40;0.30;99.90
5796;DHT22;2924;51.458;7.046;2022-12-11T16:45:20;0.30;99.90
5796;DHT22;2924;51.458;7.046;2022-12-11T16:47:47;0.30;99.90
5796;DHT22;2924;51.458;7.046;2022-12-11T16:50:14;0.30;99.90
5796;DHT22;2924;51.458;7.046;2022-12-11T16:52:41;0.30;99.90
5796;DHT22;2924;51.458;7.046;2022-12-11T16:55:08;0.30;99.90
5796;DHT22;2924;51.458;7.046;2022-12-11T16:57:34;0.20;99.90
5796;DHT22;2924;51.458;7.046;2022-12-11T17:00:00;0.20;99.90
5796;DHT22;2924;51.458;7.046;2022-12-11T17:02:26;0.30;99.90
5796;DHT22;2924;51.458;7.046;2022-12-11T17:04:51;0.20;99.90
5796;DHT22;2924;51.458;7.046;2022-12-11T17:07:17;0.20;99.90
5796;DHT22;2924;51.458;7.046;2022-12-11T17:09:44;0.20;99.90
5796;DHT22;2924;51.458;7.046;2022-12-11T17:12:09;0.20;99.90
5796;DHT22;2924;51.458;7.046;2022-12-11T17:14:35;0.20;99.90
5796;DHT22;2924;51.458;7.046;2022-12-11T17:17:01;0.20;99.90
5796;DHT22;2924;51.458;7.046;2022-12-11T17:19:27;0.20;99.90
5796;DHT22;2924;51.458;7.046;2022-12-11T17:21:52;0.20;99.90
5796;DHT22;2924;51.458;7.046;2022-12-11T17:24:19;0.20;99.90
5796;DHT22;2924;51.458;7.046;2022-12-11T17:26:45;0.20;99.90
5796;DHT22;2924;51.458;7.046;2022-12-11T17:29:12;0.20;99.90
5796;DHT22;2924;51.458;7.046;2022-12-11T17:31:38;0.10;99.90
5796;DHT22;2924;51.458;7.046;2022-12-11T17:34:03;0.10;99.90
5796;DHT22;2924;51.458;7.046;2022-12-11T17:36:29;0.20;99.90
5796;DHT22;2924;51.458;7.046;2022-12-11T17:38:55;0.10;99.90